Time;durP1;ratioP1;P1;durP2;ratioP2;P2;SDS_P1;SDS_P2;PMS_P1;PMS_P2;Temp;Humidity;BMP_temperature;BMP_pressure;BME280_temperature;BME280_humidity;BME280_pressure;Samples;Min_cycle;Max_cycle;Signal;HPM_P1;HPM_P2
2023/02/25 00:01:25;;;;;;;10.90;2.60;;;5.50;99.90;;;;;;5155230;27;20568;-70
2023/02/25 00:03:55;;;;;;;7.67;2.60;;;5.50;99.90;;;;;;5154366;27;20449;-70
2023/02/25 00:06:21;;;;;;;4.83;2.07;;;5.50;99.90;;;;;;5134480;27;20418;-71
2023/02/25 00:08:47;;;;;;;6.77;2.40;;;5.40;99.90;;;;;;5133942;27;20426;-70
2023/02/25 00:11:14;;;;;;;7.30;2.67;;;5.40;99.90;;;;;;5134512;27;20398;-71
2023/02/25 00:13:41;;;;;;;5.20;2.63;;;5.40;99.90;;;;;;5133852;27;20479;-71
2023/02/25 00:16:08;;;;;;;10.63;2.73;;;5.40;99.90;;;;;;5132882;27;20976;-71
2023/02/25 00:18:33;;;;;;;4.90;2.50;;;5.40;99.90;;;;;;5126621;27;20436;-71
2023/02/25 00:21:02;;;;;;;3.87;1.93;;;5.40;99.90;;;;;;5132790;27;20441;-71
2023/02/25 00:23:28;;;;;;;6.90;2.90;;;5.30;99.90;;;;;;5134141;27;20171;-71
2023/02/25 00:26:02;;;;;;;7.83;2.90;;;5.30;99.90;;;;;;5134143;27;20402;-71
2023/02/25 00:28:27;;;;;;;8.13;2.57;;;5.30;99.90;;;;;;5133791;27;20173;-71
2023/02/25 00:30:53;;;;;;;2.93;2.13;;;5.30;99.90;;;;;;5134017;27;21065;-71
2023/02/25 00:33:18;;;;;;;7.17;1.83;;;5.30;99.90;;;;;;5133965;27;20173;-70
2023/02/25 00:35:44;;;;;;;7.53;4.00;;;5.30;99.90;;;;;;5133774;27;20168;-70
2023/02/25 00:38:10;;;;;;;3.93;2.23;;;5.30;99.90;;;;;;5133313;27;20199;-70
2023/02/25 00:40:39;;;;;;;5.67;2.53;;;5.20;99.90;;;;;;5132305;27;20235;-71
2023/02/25 00:43:05;;;;;;;6.20;2.40;;;5.20;99.90;;;;;;5133767;27;20402;-71
2023/02/25 00:45:32;;;;;;;8.23;2.20;;;5.30;99.90;;;;;;5133567;27;20753;-71
2023/02/25 00:47:57;;;;;;;4.77;2.07;;;5.30;99.90;;;;;;5133384;27;20405;-71
2023/02/25 00:50:23;;;;;;;12.87;2.90;;;5.20;99.90;;;;;;5133548;27;20426;-71
2023/02/25 00:52:48;;;;;;;5.57;2.67;;;5.10;99.90;;;;;;5133630;27;20161;-72
2023/02/25 00:55:14;;;;;;;7.93;3.13;;;5.00;99.90;;;;;;5133650;27;20164;-72
2023/02/25 00:57:42;;;;;;;5.57;2.40;;;4.90;99.90;;;;;;5133194;27;20165;-72
2023/02/25 01:00:14;;;;;;;7.03;2.30;;;4.80;99.90;;;;;;5133477;27;20516;-72
2023/02/25 01:02:41;;;;;;;8.23;1.97;;;4.60;99.90;;;;;;5137315;27;20986;-72
2023/02/25 01:05:07;;;;;;;9.53;1.53;;;4.50;99.90;;;;;;5139356;27;20437;-71
2023/02/25 01:07:33;;;;;;;9.23;2.37;;;4.40;99.90;;;;;;5133007;27;20426;-71
2023/02/25 01:09:59;;;;;;;3.70;1.60;;;4.30;99.90;;;;;;5133221;27;20462;-71
2023/02/25 01:12:24;;;;;;;6.23;2.00;;;4.30;99.90;;;;;;5133085;27;20416;-71
2023/02/25 01:14:50;;;;;;;9.47;1.90;;;4.30;99.90;;;;;;5133336;27;20175;-71
2023/02/25 01:17:16;;;;;;;6.87;3.13;;;4.20;99.90;;;;;;5120756;27;20177;-71
2023/02/25 01:19:42;;;;;;;4.50;2.00;;;4.20;99.90;;;;;;5112564;28;20184;-71
2023/02/25 01:22:08;;;;;;;4.67;2.43;;;4.20;99.90;;;;;;5112525;28;20453;-70
2023/02/25 01:24:33;;;;;;;8.27;1.60;;;4.20;99.90;;;;;;5112503;28;20563;-71
2023/02/25 01:27:01;;;;;;;3.00;1.93;;;4.20;99.90;;;;;;5112236;28;20192;-72
2023/02/25 01:29:30;;;;;;;3.43;2.13;;;4.20;99.90;;;;;;5112504;28;20276;-72
2023/02/25 01:31:58;;;;;;;5.67;1.43;;;4.20;99.90;;;;;;5112387;28;20459;-72
2023/02/25 01:34:25;;;;;;;2.33;1.97;;;4.20;99.90;;;;;;5112473;28;20399;-72
2023/02/25 01:36:51;;;;;;;9.50;3.00;;;4.10;99.90;;;;;;5112099;28;20398;-72
2023/02/25 01:39:19;;;;;;;2.27;1.67;;;4.20;99.90;;;;;;5112322;28;20421;-72
2023/02/25 01:41:45;;;;;;;5.10;2.07;;;4.20;99.90;;;;;;5112227;28;20188;-72
2023/02/25 01:44:17;;;;;;;8.30;2.10;;;4.20;99.90;;;;;;5112228;28;20443;-72
2023/02/25 01:46:45;;;;;;;2.03;1.83;;;4.20;99.90;;;;;;5119574;28;20474;-72
2023/02/25 01:49:16;;;;;;;4.70;2.67;;;4.30;99.90;;;;;;5132568;27;20441;-72
2023/02/25 01:51:44;;;;;;;4.57;2.37;;;4.30;99.90;;;;;;5131455;27;20907;-73
2023/02/25 01:54:13;;;;;;;4.67;2.20;;;4.40;99.90;;;;;;5132773;27;20769;-72
2023/02/25 01:56:42;;;;;;;7.10;2.30;;;4.40;99.90;;;;;;5132741;27;20884;-72
2023/02/25 01:59:08;;;;;;;6.00;2.50;;;4.50;99.90;;;;;;5136605;27;20470;-72
2023/02/25 02:01:37;;;;;;;3.10;1.43;;;4.50;99.90;;;;;;5136908;27;20453;-72
2023/02/25 02:04:04;;;;;;;9.77;2.57;;;4.50;99.90;;;;;;5134252;27;20406;-72
2023/02/25 02:06:36;;;;;;;3.70;1.40;;;4.50;99.90;;;;;;5116279;28;20390;-73
2023/02/25 02:09:05;;;;;;;6.63;1.80;;;4.60;99.90;;;;;;5145856;27;20425;-72
2023/02/25 02:11:32;;;;;;;6.90;2.03;;;4.60;99.90;;;;;;5116091;28;20412;-72
2023/02/25 02:13:59;;;;;;;5.60;2.10;;;4.60;99.90;;;;;;5116042;28;20454;-72
2023/02/25 02:16:43;;;;;;;8.17;2.50;;;4.60;99.90;;;;;;5120602;27;20418;-72
2023/02/25 02:19:21;;;;;;;5.93;2.40;;;4.60;99.90;;;;;;5115624;28;20417;-70
2023/02/25 02:21:59;;;;;;;5.37;1.83;;;4.60;99.90;;;;;;5115934;28;20488;-71
2023/02/25 02:24:50;;;;;;;5.20;2.30;;;4.60;99.90;;;;;;5114650;28;20535;-71
2023/02/25 02:27:27;;;;;;;3.43;1.63;;;4.60;99.90;;;;;;5115755;28;20387;-71
2023/02/25 02:30:45;;;;;;;13.73;3.27;;;4.60;99.90;;;;;;5115814;28;20912;-71
2023/02/25 02:33:35;;;;;;;7.83;2.97;;;4.60;99.90;;;;;;5058669;28;20403;-71
2023/02/25 02:36:09;;;;;;;8.40;2.57;;;4.60;99.90;;;;;;5115002;28;20500;-71
2023/02/25 02:38:45;;;;;;;2.47;1.40;;;4.50;99.90;;;;;;5114534;28;20395;-72
2023/02/25 02:41:25;;;;;;;3.37;2.33;;;4.50;99.90;;;;;;5114786;28;20523;-72
2023/02/25 02:44:03;;;;;;;8.20;2.87;;;4.50;99.90;;;;;;5114911;28;20391;-72
2023/02/25 02:46:54;;;;;;;9.20;2.27;;;4.50;99.90;;;;;;5127393;27;20412;-72
2023/02/25 02:50:00;;;;;;;4.73;1.83;;;4.60;99.90;;;;;;5135899;27;20471;-72
2023/02/25 02:52:31;;;;;;;8.80;2.40;;;4.60;99.90;;;;;;5090276;27;20553;-72
2023/02/25 02:55:05;;;;;;;5.03;2.27;;;4.60;99.90;;;;;;5136027;27;20413;-72
2023/02/25 02:57:33;;;;;;;6.23;2.50;;;4.60;99.90;;;;;;5135467;27;20398;-72
2023/02/25 03:00:12;;;;;;;7.17;2.80;;;4.60;99.90;;;;;;5135716;27;20410;-72
2023/02/25 03:02:39;;;;;;;8.17;2.00;;;4.60;99.90;;;;;;5135685;27;20486;-72
2023/02/25 03:05:09;;;;;;;9.23;1.83;;;4.60;99.90;;;;;;5124277;27;20407;-72
2023/02/25 03:07:50;;;;;;;5.00;3.30;;;4.60;99.90;;;;;;5115529;28;20402;-72
2023/02/25 03:10:20;;;;;;;6.73;1.57;;;4.70;99.90;;;;;;5115217;28;20402;-72
2023/02/25 03:12:45;;;;;;;6.23;2.20;;;4.70;99.90;;;;;;5124404;27;20418;-73
2023/02/25 03:15:13;;;;;;;5.90;2.10;;;4.70;99.90;;;;;;5113656;28;20955;-73
2023/02/25 03:17:43;;;;;;;11.43;1.47;;;4.70;99.90;;;;;;5113369;28;20208;-73
2023/02/25 03:20:15;;;;;;;5.60;2.07;;;4.70;99.90;;;;;;5138250;27;20463;-72
2023/02/25 03:22:45;;;;;;;3.27;2.23;;;4.70;99.90;;;;;;5137673;27;20854;-72
2023/02/25 03:25:25;;;;;;;7.23;2.03;;;4.70;99.90;;;;;;5135567;27;20473;-72
2023/02/25 03:28:06;;;;;;;3.93;1.40;;;4.70;99.90;;;;;;5135077;27;20394;-72
2023/02/25 03:30:43;;;;;;;5.90;2.07;;;4.70;99.90;;;;;;5135141;27;21001;-72
2023/02/25 03:33:32;;;;;;;7.23;1.70;;;4.80;99.90;;;;;;5135085;27;20454;-72
2023/02/25 03:36:00;;;;;;;3.80;1.23;;;4.70;99.90;;;;;;5135709;27;20394;-72
2023/02/25 03:38:29;;;;;;;3.60;1.90;;;4.70;99.90;;;;;;5134835;27;20425;-72
2023/02/25 03:41:00;;;;;;;7.33;2.37;;;4.80;99.90;;;;;;5121938;27;20511;-71
2023/02/25 03:43:41;;;;;;;3.47;1.87;;;4.80;99.90;;;;;;5114858;28;20434;-71
2023/02/25 03:46:07;;;;;;;9.10;2.53;;;4.80;99.90;;;;;;5114360;28;20430;-71
2023/02/25 03:48:35;;;;;;;5.93;2.40;;;4.80;99.90;;;;;;5113931;28;20406;-72
2023/02/25 03:51:02;;;;;;;5.70;2.17;;;4.80;99.90;;;;;;5114354;28;20489;-72
2023/02/25 03:53:29;;;;;;;6.53;2.47;;;4.80;99.90;;;;;;5114167;28;20787;-72
2023/02/25 03:55:58;;;;;;;8.27;2.63;;;4.80;99.90;;;;;;5114303;28;20399;-72
2023/02/25 03:58:23;;;;;;;9.13;2.17;;;4.80;99.90;;;;;;5113811;28;20399;-72
2023/02/25 04:00:54;;;;;;;9.60;2.40;;;4.90;99.90;;;;;;5114024;28;20471;-71
2023/02/25 04:03:20;;;;;;;4.37;2.33;;;4.90;99.90;;;;;;5114100;28;20634;-71
2023/02/25 04:05:47;;;;;;;2.47;1.40;;;4.90;99.90;;;;;;5131067;27;20406;-71
2023/02/25 04:08:16;;;;;;;4.43;2.00;;;4.90;99.90;;;;;;5134054;27;20157;-72
2023/02/25 04:10:43;;;;;;;4.37;2.13;;;4.90;99.90;;;;;;5130468;27;20902;-72
2023/02/25 04:13:11;;;;;;;4.10;2.20;;;4.90;99.90;;;;;;5114298;28;20501;-71
2023/02/25 04:15:36;;;;;;;9.50;2.43;;;4.90;99.90;;;;;;5113123;28;20402;-71
2023/02/25 04:18:02;;;;;;;15.17;3.40;;;4.90;99.90;;;;;;5113706;28;20401;-72
2023/02/25 04:20:31;;;;;;;13.20;2.93;;;4.90;99.90;;;;;;5113123;28;20214;-72
2023/02/25 04:22:57;;;;;;;6.63;2.07;;;5.00;99.90;;;;;;5113677;28;20164;-71
2023/02/25 04:25:23;;;;;;;5.80;1.80;;;5.00;99.90;;;;;;5113585;28;20406;-73
2023/02/25 04:27:48;;;;;;;11.63;1.67;;;5.00;99.90;;;;;;5113266;28;20498;-72
2023/02/25 04:30:14;;;;;;;5.70;1.90;;;5.00;99.90;;;;;;5116668;27;20216;-71
2023/02/25 04:32:40;;;;;;;5.47;1.90;;;5.00;99.90;;;;;;5145873;27;20209;-71
2023/02/25 04:35:10;;;;;;;4.40;1.77;;;4.90;99.90;;;;;;5134094;27;20426;-72
2023/02/25 04:37:36;;;;;;;3.80;1.63;;;5.00;99.90;;;;;;5133721;27;20732;-71
2023/02/25 04:40:04;;;;;;;4.30;2.23;;;5.00;99.90;;;;;;5124045;27;20491;-72
2023/02/25 04:42:29;;;;;;;4.73;1.77;;;5.00;99.90;;;;;;5112097;28;20454;-72
2023/02/25 04:44:55;;;;;;;8.23;1.70;;;5.00;99.90;;;;;;5113251;28;20441;-72
2023/02/25 04:47:20;;;;;;;4.33;1.93;;;5.00;99.90;;;;;;5112713;28;20225;-71
2023/02/25 04:49:46;;;;;;;3.33;1.60;;;5.00;99.90;;;;;;5113151;28;20245;-71
2023/02/25 04:52:13;;;;;;;6.00;1.90;;;5.00;99.90;;;;;;5113072;28;20172;-71
2023/02/25 04:54:38;;;;;;;12.37;2.37;;;5.00;99.90;;;;;;5113135;28;20565;-71
2023/02/25 04:57:05;;;;;;;8.73;2.30;;;5.00;99.90;;;;;;5112772;28;20414;-72
2023/02/25 04:59:30;;;;;;;6.47;1.90;;;5.00;99.90;;;;;;5112922;28;20187;-72
2023/02/25 05:01:56;;;;;;;8.60;2.43;;;4.90;99.90;;;;;;5112848;28;20446;-72
2023/02/25 05:04:21;;;;;;;5.00;1.60;;;4.90;99.90;;;;;;5112969;28;20180;-70
2023/02/25 05:06:47;;;;;;;2.33;1.70;;;4.90;99.90;;;;;;5112100;28;20168;-70
2023/02/25 05:09:12;;;;;;;7.90;2.27;;;4.90;99.90;;;;;;5113068;28;20208;-70
2023/02/25 05:11:38;;;;;;;6.50;1.77;;;5.00;99.90;;;;;;5113349;28;20169;-72
2023/02/25 05:14:03;;;;;;;3.10;1.47;;;5.00;99.90;;;;;;5112526;28;20188;-72
2023/02/25 05:16:29;;;;;;;18.37;2.47;;;5.00;99.90;;;;;;5112618;28;20218;-71
2023/02/25 05:18:55;;;;;;;4.60;1.77;;;4.90;99.90;;;;;;5112381;28;20189;-71
2023/02/25 05:21:23;;;;;;;4.67;1.77;;;4.90;99.90;;;;;;5113512;28;20195;-71
2023/02/25 05:23:51;;;;;;;8.90;2.13;;;4.90;99.90;;;;;;5113612;28;20181;-71
2023/02/25 05:26:22;;;;;;;3.13;1.30;;;4.90;99.90;;;;;;5113478;28;20447;-72
2023/02/25 05:28:56;;;;;;;5.87;2.10;;;4.90;99.90;;;;;;5113266;28;20925;-70
2023/02/25 05:31:23;;;;;;;7.17;1.80;;;5.00;99.90;;;;;;5113000;28;20413;-70
2023/02/25 05:33:49;;;;;;;4.30;1.57;;;5.00;99.90;;;;;;5111914;28;20457;-71
2023/02/25 05:36:15;;;;;;;4.30;2.30;;;5.00;99.90;;;;;;5111461;28;20411;-71
2023/02/25 05:38:42;;;;;;;14.57;1.43;;;5.00;99.90;;;;;;5113277;28;20769;-71
2023/02/25 05:41:08;;;;;;;2.23;1.07;;;5.00;99.90;;;;;;5112365;28;20457;-71
2023/02/25 05:43:35;;;;;;;7.40;2.23;;;4.90;99.90;;;;;;5142690;27;20409;-72
2023/02/25 05:46:02;;;;;;;2.97;1.23;;;4.90;99.90;;;;;;5132773;27;20743;-72
2023/02/25 05:48:27;;;;;;;5.90;2.27;;;4.90;99.90;;;;;;5132575;27;20402;-72
2023/02/25 05:51:00;;;;;;;7.20;2.30;;;4.90;99.90;;;;;;5132986;27;20469;-71
2023/02/25 05:53:26;;;;;;;4.97;2.10;;;4.90;99.90;;;;;;5132921;27;20251;-73
2023/02/25 05:55:52;;;;;;;1.97;1.17;;;4.90;99.90;;;;;;5132835;28;20437;-72
2023/02/25 05:58:17;;;;;;;2.10;1.23;;;4.90;99.90;;;;;;5132497;27;20168;-71
2023/02/25 06:00:43;;;;;;;10.63;2.00;;;4.90;99.90;;;;;;5126299;27;20265;-71
2023/02/25 06:03:08;;;;;;;4.30;1.57;;;4.90;99.90;;;;;;5112099;28;20226;-71
2023/02/25 06:05:38;;;;;;;3.80;1.77;;;4.90;99.90;;;;;;5128214;28;20180;-71
2023/02/25 06:08:03;;;;;;;10.47;2.20;;;4.90;99.90;;;;;;5131166;27;20169;-72
2023/02/25 06:10:35;;;;;;;5.83;1.97;;;4.90;99.90;;;;;;5131323;27;20433;-71
2023/02/25 06:13:06;;;;;;;12.33;2.67;;;4.90;99.90;;;;;;5132329;27;20253;-72
2023/02/25 06:15:31;;;;;;;7.87;2.37;;;4.90;99.90;;;;;;5131107;27;20409;-71
2023/02/25 06:17:57;;;;;;;5.33;2.07;;;4.90;99.90;;;;;;5123078;27;20467;-71
2023/02/25 06:20:24;;;;;;;6.60;2.60;;;4.90;99.90;;;;;;5112334;28;20185;-72
2023/02/25 06:22:50;;;;;;;4.57;2.33;;;4.90;99.90;;;;;;5111898;28;20292;-72
2023/02/25 06:25:16;;;;;;;4.87;2.00;;;4.90;99.90;;;;;;5110661;28;20479;-72
2023/02/25 06:27:42;;;;;;;3.50;2.43;;;4.90;99.90;;;;;;5111688;28;20489;-71
2023/02/25 06:30:08;;;;;;;6.43;2.47;;;4.90;99.90;;;;;;5111752;28;20196;-72
2023/02/25 06:32:34;;;;;;;6.30;2.17;;;4.90;99.90;;;;;;5111904;28;20173;-71
2023/02/25 06:34:59;;;;;;;15.43;2.87;;;4.90;99.90;;;;;;5111814;28;20407;-72
2023/02/25 06:37:25;;;;;;;6.30;2.37;;;4.90;99.90;;;;;;5110286;28;20169;-73
2023/02/25 06:39:52;;;;;;;6.33;2.60;;;4.90;99.90;;;;;;5111826;28;20267;-73
2023/02/25 06:42:17;;;;;;;5.07;2.17;;;5.00;99.90;;;;;;5111815;28;20195;-73
2023/02/25 06:44:43;;;;;;;6.40;2.40;;;5.00;99.90;;;;;;5115665;28;20402;-71
2023/02/25 06:47:08;;;;;;;3.50;1.83;;;5.00;99.90;;;;;;5116126;28;20173;-70
2023/02/25 06:49:34;;;;;;;6.60;2.10;;;5.00;99.90;;;;;;5115950;27;20185;-71
2023/02/25 06:52:00;;;;;;;2.90;1.47;;;5.00;99.90;;;;;;5148689;27;20164;-71
2023/02/25 06:54:26;;;;;;;7.87;2.03;;;5.00;99.90;;;;;;5136732;27;20770;-71
2023/02/25 06:56:52;;;;;;;4.40;2.10;;;5.00;99.90;;;;;;5136537;27;20401;-70
2023/02/25 06:59:18;;;;;;;4.83;2.47;;;5.10;99.90;;;;;;5136055;27;20473;-72
2023/02/25 07:01:43;;;;;;;20.73;2.93;;;5.10;99.90;;;;;;5126282;27;20217;-73
2023/02/25 07:04:15;;;;;;;6.50;2.20;;;5.20;99.90;;;;;;5132481;27;20173;-71
2023/02/25 07:06:40;;;;;;;6.40;2.50;;;5.20;99.90;;;;;;5116483;28;20161;-71
2023/02/25 07:09:06;;;;;;;7.00;2.60;;;5.20;99.90;;;;;;5115790;28;20764;-71
2023/02/25 07:11:34;;;;;;;3.80;2.00;;;5.20;99.90;;;;;;5115573;28;20169;-72
2023/02/25 07:14:04;;;;;;;12.93;2.07;;;5.20;99.90;;;;;;5114926;28;20185;-72
2023/02/25 07:16:30;;;;;;;6.33;2.57;;;5.30;99.90;;;;;;5115807;28;20526;-71
2023/02/25 07:18:57;;;;;;;7.43;1.83;;;5.30;99.90;;;;;;5116265;28;20519;-72
2023/02/25 07:21:23;;;;;;;7.13;3.00;;;5.40;99.90;;;;;;5116330;28;20196;-71
2023/02/25 07:23:49;;;;;;;11.40;2.07;;;5.40;99.90;;;;;;5116467;28;20406;-71
2023/02/25 07:26:15;;;;;;;5.67;2.43;;;5.40;99.90;;;;;;5116034;28;20165;-71
2023/02/25 07:28:42;;;;;;;6.73;2.30;;;5.50;99.90;;;;;;5113836;28;20421;-72
2023/02/25 07:31:20;;;;;;;8.57;3.23;;;5.50;99.90;;;;;;5116192;27;20410;-72
2023/02/25 07:33:46;;;;;;;9.60;3.00;;;5.50;99.90;;;;;;5114787;28;20446;-71
2023/02/25 07:36:12;;;;;;;5.10;2.20;;;5.60;99.90;;;;;;5114903;27;20919;-72
2023/02/25 07:38:37;;;;;;;5.47;2.10;;;5.60;99.90;;;;;;5114205;28;20168;-72
2023/02/25 07:41:08;;;;;;;2.83;1.83;;;5.70;99.90;;;;;;5114516;27;20457;-72
2023/02/25 07:43:34;;;;;;;12.03;2.63;;;5.70;99.90;;;;;;5114552;28;20615;-72
2023/02/25 07:45:59;;;;;;;9.87;2.23;;;5.70;99.90;;;;;;5113101;28;20407;-72
2023/02/25 07:48:25;;;;;;;8.20;2.50;;;5.80;99.90;;;;;;5113955;28;20462;-72
2023/02/25 07:50:51;;;;;;;4.73;2.30;;;5.80;99.90;;;;;;5113943;28;20173;-71
2023/02/25 07:53:16;;;;;;;6.33;2.73;;;5.90;99.90;;;;;;5114982;28;20920;-72
2023/02/25 07:55:46;;;;;;;7.50;2.13;;;6.00;99.90;;;;;;5116022;27;20502;-72
2023/02/25 07:58:12;;;;;;;21.13;3.40;;;6.10;99.90;;;;;;5141314;27;20648;-72
2023/02/25 08:00:39;;;;;;;12.17;2.50;;;6.30;99.90;;;;;;5119972;27;20828;-73
2023/02/25 08:03:06;;;;;;;4.00;2.00;;;6.50;99.90;;;;;;5114113;28;20391;-71
2023/02/25 08:05:34;;;;;;;7.17;2.57;;;6.60;99.90;;;;;;5130786;27;20455;-71
2023/02/25 08:07:59;;;;;;;8.87;3.90;;;6.80;99.90;;;;;;5136571;27;20386;-72
2023/02/25 08:10:25;;;;;;;5.67;2.20;;;6.90;99.90;;;;;;5137007;27;20513;-72
2023/02/25 08:12:50;;;;;;;12.03;2.93;;;7.00;99.90;;;;;;5136489;27;20191;-71
2023/02/25 08:15:16;;;;;;;6.27;2.07;;;7.10;99.90;;;;;;5137325;27;20646;-71
2023/02/25 08:17:41;;;;;;;11.17;3.30;;;7.30;99.90;;;;;;5137204;27;20171;-71
2023/02/25 08:20:08;;;;;;;10.87;3.40;;;7.40;99.90;;;;;;5134884;27;20188;-73
2023/02/25 08:22:33;;;;;;;7.20;2.40;;;7.60;99.90;;;;;;5134110;27;20196;-73
2023/02/25 08:24:59;;;;;;;5.50;2.00;;;7.80;99.90;;;;;;5134047;27;20398;-73
2023/02/25 08:27:25;;;;;;;7.13;2.17;;;8.00;99.90;;;;;;5133812;27;20171;-72
2023/02/25 08:29:50;;;;;;;10.57;1.77;;;8.00;99.90;;;;;;5123855;27;20192;-71
2023/02/25 08:32:16;;;;;;;5.60;2.77;;;8.10;99.90;;;;;;5112230;28;20417;-72
2023/02/25 08:34:42;;;;;;;7.17;2.20;;;8.10;99.90;;;;;;5113486;28;20165;-71
2023/02/25 08:37:12;;;;;;;14.50;2.77;;;8.00;99.90;;;;;;5113741;28;20175;-71
2023/02/25 08:39:37;;;;;;;9.23;2.60;;;8.10;99.90;;;;;;5114418;28;20425;-72
2023/02/25 08:42:03;;;;;;;3.83;2.77;;;8.20;99.90;;;;;;5113111;28;20446;-72
2023/02/25 08:44:29;;;;;;;9.17;2.50;;;8.30;99.90;;;;;;5113295;28;20575;-72
2023/02/25 08:46:54;;;;;;;9.57;1.97;;;8.40;99.90;;;;;;5112912;28;20403;-72
2023/02/25 08:49:20;;;;;;;9.80;3.10;;;8.50;99.90;;;;;;5111819;28;20280;-72
2023/02/25 08:51:49;;;;;;;11.70;2.97;;;8.50;99.90;;;;;;5111846;28;20263;-72
2023/02/25 08:54:15;;;;;;;3.40;2.03;;;8.50;99.90;;;;;;5111850;28;20180;-72
2023/02/25 08:56:43;;;;;;;10.13;2.50;;;8.60;99.90;;;;;;5112926;28;20403;-72
2023/02/25 08:59:11;;;;;;;9.67;2.80;;;8.70;99.90;;;;;;5116554;27;20516;-73
2023/02/25 09:01:47;;;;;;;8.77;2.77;;;8.60;99.90;;;;;;5115531;27;20446;-73
2023/02/25 09:04:20;;;;;;;11.77;2.77;;;8.60;99.90;;;;;;5112874;28;20406;-72
2023/02/25 09:06:46;;;;;;;4.47;1.73;;;8.60;99.90;;;;;;5113001;28;20469;-72
2023/02/25 09:09:16;;;;;;;8.23;1.90;;;8.50;99.90;;;;;;5143793;27;20779;-73
2023/02/25 09:11:42;;;;;;;6.90;1.90;;;8.40;99.90;;;;;;5133201;27;20402;-72
2023/02/25 09:14:09;;;;;;;3.93;2.13;;;8.30;99.90;;;;;;5133200;27;20945;-73
2023/02/25 09:16:34;;;;;;;5.20;2.03;;;8.10;99.90;;;;;;5133409;27;20397;-72
2023/02/25 09:19:00;;;;;;;8.33;1.90;;;8.00;99.90;;;;;;5132903;27;20429;-73
2023/02/25 09:21:26;;;;;;;6.80;2.33;;;7.90;99.90;;;;;;5133240;27;20581;-72
2023/02/25 09:23:51;;;;;;;10.20;2.27;;;8.00;99.90;;;;;;5133137;27;20501;-72
2023/02/25 09:26:19;;;;;;;7.53;2.80;;;8.00;99.90;;;;;;5133247;27;20161;-73
2023/02/25 09:28:46;;;;;;;10.47;1.97;;;8.00;99.90;;;;;;5127858;27;20658;-73
2023/02/25 09:31:12;;;;;;;7.13;2.03;;;8.00;99.90;;;;;;5112548;28;20402;-73
2023/02/25 09:33:38;;;;;;;4.83;2.03;;;7.90;99.90;;;;;;5112561;28;20399;-73
2023/02/25 09:36:10;;;;;;;8.43;2.30;;;7.90;99.90;;;;;;5112593;28;20398;-73
2023/02/25 09:38:37;;;;;;;4.87;1.83;;;7.80;99.90;;;;;;5112223;28;20414;-73
2023/02/25 09:41:33;;;;;;;2.57;1.80;;;7.70;99.90;;;;;;5112410;28;20424;-73
2023/02/25 09:44:08;;;;;;;8.03;2.03;;;7.60;99.90;;;;;;5112454;28;20400;-73
2023/02/25 09:46:37;;;;;;;6.70;1.90;;;7.50;99.90;;;;;;5112525;28;20489;-73
2023/02/25 09:49:09;;;;;;;2.57;1.30;;;7.40;99.90;;;;;;5111961;28;20423;-73
2023/02/25 09:51:40;;;;;;;7.50;2.90;;;7.30;99.90;;;;;;5112553;28;20447;-73
2023/02/25 09:54:19;;;;;;;3.77;1.70;;;7.40;99.90;;;;;;5112318;28;20399;-73
2023/02/25 09:56:45;;;;;;;3.63;2.10;;;7.60;99.90;;;;;;5111360;28;20421;-73
2023/02/25 09:59:20;;;;;;;11.80;2.17;;;7.90;99.90;;;;;;5113494;28;20529;-73
2023/02/25 10:02:05;;;;;;;2.27;1.30;;;8.20;99.90;;;;;;5132946;27;20482;-73
2023/02/25 10:04:41;;;;;;;11.37;4.43;;;8.50;99.90;;;;;;5126357;27;20430;-73
2023/02/25 10:07:21;;;;;;;14.50;9.10;;;9.00;99.90;;;;;;5112174;28;20425;-73
2023/02/25 10:10:02;;;;;;;4.17;2.87;;;9.50;99.90;;;;;;5112149;28;20415;-73
2023/02/25 10:13:02;;;;;;;4.93;1.90;;;10.90;99.90;;;;;;5111753;28;20799;-73
2023/02/25 10:15:30;;;;;;;6.10;1.93;;;12.20;99.90;;;;;;5143058;27;20433;-71
2023/02/25 10:18:20;;;;;;;7.40;1.60;;;12.70;99.90;;;;;;5132778;27;20788;-73
2023/02/25 10:21:19;;;;;;;5.87;2.17;;;12.90;99.90;;;;;;5135773;27;20429;-72
2023/02/25 10:23:48;;;;;;;3.10;1.40;;;13.10;99.90;;;;;;5116051;28;20493;-72
2023/02/25 10:26:28;;;;;;;3.90;1.63;;;13.40;99.90;;;;;;5116069;28;20391;-73
2023/02/25 10:28:59;;;;;;;5.27;2.13;;;14.10;99.90;;;;;;5125901;27;20417;-73
2023/02/25 10:31:25;;;;;;;5.53;2.10;;;15.70;99.90;;;;;;5136436;27;20500;-73
2023/02/25 10:33:52;;;;;;;4.13;1.67;;;17.20;98.80;;;;;;5136342;27;20421;-73
2023/02/25 10:36:32;;;;;;;3.10;2.17;;;17.80;93.00;;;;;;5134961;27;20409;-73
2023/02/25 10:38:58;;;;;;;2.60;1.20;;;18.40;85.80;;;;;;5135972;27;20457;-73
2023/02/25 10:41:28;;;;;;;3.87;1.93;;;19.20;80.80;;;;;;5136216;27;20532;-73
2023/02/25 10:43:56;;;;;;;4.47;1.43;;;20.00;72.10;;;;;;5135981;27;20533;-73
2023/02/25 10:46:34;;;;;;;4.70;1.60;;;21.40;68.10;;;;;;5136005;27;20398;-73
2023/02/25 10:49:13;;;;;;;2.80;1.60;;;23.20;61.30;;;;;;5135741;27;20445;-73
2023/02/25 10:52:05;;;;;;;5.07;2.37;;;23.80;56.10;;;;;;5135301;27;20411;-74
2023/02/25 10:54:34;;;;;;;7.30;1.97;;;22.90;50.80;;;;;;5136094;27;20400;-73
2023/02/25 10:57:07;;;;;;;3.60;1.73;;;21.80;49.30;;;;;;5134621;27;20952;-73
2023/02/25 10:59:41;;;;;;;3.63;1.77;;;20.50;50.20;;;;;;5132223;27;20770;-73
2023/02/25 11:02:39;;;;;;;4.10;1.57;;;18.90;50.80;;;;;;5135920;27;20451;-73
2023/02/25 11:05:06;;;;;;;2.60;1.80;;;16.90;53.30;;;;;;5108729;27;20442;-73
2023/02/25 11:07:39;;;;;;;2.90;2.20;;;15.50;56.40;;;;;;5113717;28;20506;-73
2023/02/25 11:10:08;;;;;;;1.50;1.40;;;13.90;58.00;;;;;;5115166;28;20419;-74
2023/02/25 11:12:51;;;;;;;2.13;1.30;;;12.70;60.80;;;;;;5115052;28;20442;-71
2023/02/25 11:15:29;;;;;;;2.13;1.73;;;11.40;66.70;;;;;;5114855;28;20409;-72
2023/02/25 11:18:04;;;;;;;2.53;2.33;;;10.30;75.30;;;;;;5114274;28;20402;-73
2023/02/25 11:20:33;;;;;;;2.07;1.87;;;9.40;92.30;;;;;;5113620;27;20803;-72
2023/02/25 11:22:59;;;;;;;3.03;2.83;;;8.70;99.90;;;;;;5114588;28;20475;-72
2023/02/25 11:25:36;;;;;;;3.20;2.00;;;8.20;99.90;;;;;;5134612;27;20758;-73
2023/02/25 11:28:02;;;;;;;3.10;2.80;;;7.80;99.90;;;;;;5138509;27;20397;-73
2023/02/25 11:30:37;;;;;;;1.87;1.70;;;7.70;99.90;;;;;;5134045;27;20428;-73
2023/02/25 11:33:20;;;;;;;2.50;1.47;;;7.70;99.90;;;;;;5135393;27;20411;-73
2023/02/25 11:35:55;;;;;;;2.10;1.90;;;7.90;99.90;;;;;;5135382;27;20414;-73
2023/02/25 11:38:36;;;;;;;2.27;1.30;;;8.10;99.90;;;;;;5133712;27;20441;-73
2023/02/25 11:41:03;;;;;;;3.80;1.27;;;8.30;99.90;;;;;;5135165;27;20408;-73
2023/02/25 11:43:38;;;;;;;2.07;1.30;;;8.60;99.90;;;;;;5134852;27;20984;-73
2023/02/25 11:46:10;;;;;;;1.30;1.03;;;9.40;99.90;;;;;;5135201;27;20424;-73
2023/02/25 11:48:46;;;;;;;1.10;0.87;;;13.20;99.90;;;;;;5134516;27;20398;-73
2023/02/25 11:51:30;;;;;;;1.30;1.00;;;18.10;99.90;;;;;;5129528;27;20545;-73
2023/02/25 11:54:08;;;;;;;1.30;1.03;;;23.20;95.60;;;;;;5134571;27;20397;-73
2023/02/25 11:56:38;;;;;;;2.23;1.27;;;26.80;69.10;;;;;;5134775;27;20406;-73
2023/02/25 11:59:12;;;;;;;1.50;1.13;;;29.90;53.70;;;;;;5125418;27;20436;-73
2023/02/25 12:01:59;;;;;;;2.20;2.00;;;32.20;45.50;;;;;;5114020;28;20464;-74
2023/02/25 12:04:24;;;;;;;6.67;3.80;;;33.90;39.30;;;;;;5113991;28;20399;-74
2023/02/25 12:07:17;;;;;;;4.60;2.47;;;34.70;36.90;;;;;;5112240;28;20419;-75
2023/02/25 12:10:03;;;;;;;1.77;1.60;;;35.00;36.00;;;;;;5113751;28;20659;-73
2023/02/25 12:12:58;;;;;;;2.87;2.37;;;36.50;34.90;;;;;;5113651;28;20398;-73
2023/02/25 12:16:01;;;;;;;3.40;2.20;;;36.10;31.60;;;;;;5113962;28;20449;-73
2023/02/25 12:18:38;;;;;;;3.00;2.20;;;34.20;31.40;;;;;;5127291;27;20517;-73
2023/02/25 12:21:28;;;;;;;3.50;2.00;;;34.90;33.50;;;;;;5134259;27;20390;-74
2023/02/25 12:24:06;;;;;;;4.20;2.30;;;36.40;32.50;;;;;;5131238;27;20413;-73
2023/02/25 12:27:14;;;;;;;2.10;1.90;;;37.60;31.20;;;;;;5134201;27;20386;-73
2023/02/25 12:30:04;;;;;;;6.27;2.30;;;38.50;29.40;;;;;;5134100;27;20418;-73
2023/02/25 12:32:59;;;;;;;4.03;2.13;;;39.20;28.90;;;;;;5137986;27;20413;-73
2023/02/25 12:35:37;;;;;;;2.17;2.03;;;39.80;27.60;;;;;;5150151;27;20400;-74
2023/02/25 12:38:29;;;;;;;3.27;2.10;;;40.10;27.20;;;;;;5154551;27;20385;-73
2023/02/25 12:40:54;;;;;;;2.07;1.83;;;40.50;27.30;;;;;;5154344;27;20397;-73
2023/02/25 12:43:30;;;;;;;3.17;1.93;;;40.60;26.60;;;;;;5154618;27;20442;-73
2023/02/25 12:46:03;;;;;;;2.60;1.80;;;40.60;25.80;;;;;;5155217;27;20208;-73
2023/02/25 12:49:04;;;;;;;3.60;2.37;;;40.10;25.20;;;;;;5136813;27;20502;-72
2023/02/25 12:51:51;;;;;;;7.37;2.40;;;39.60;25.20;;;;;;5132435;27;20907;-73
2023/02/25 12:54:23;;;;;;;2.67;1.70;;;38.70;25.30;;;;;;5133744;27;20402;-72
2023/02/25 12:56:54;;;;;;;2.33;1.73;;;38.30;25.70;;;;;;5133537;27;20401;-72
2023/02/25 12:59:30;;;;;;;3.93;1.90;;;38.50;25.90;;;;;;5133466;27;20421;-72
2023/02/25 13:02:17;;;;;;;5.33;4.30;;;37.20;25.20;;;;;;5133489;27;20495;-72
2023/02/25 13:04:48;;;;;;;2.77;1.70;;;35.80;25.20;;;;;;5125342;27;20877;-72
2023/02/25 13:07:21;;;;;;;3.13;2.23;;;33.40;25.60;;;;;;5112623;28;20394;-72
2023/02/25 13:10:10;;;;;;;3.90;1.93;;;30.30;26.60;;;;;;5112507;28;20932;-72
2023/02/25 13:13:03;;;;;;;3.33;2.53;;;28.60;28.70;;;;;;5111504;28;20431;-73